SKK2501 DTTA-DRRN
Flight info
| Callsign | SKK2501 |
|---|---|
| Flight time | 3h 39m |
| Altitude | 34000 |
| Route | RATBA2A RATBA UL44 BAN/N0448F350 UM858 EBA/N0448F340 UG362 BOD/N0450F360 UG855 GASON GUMAT1P |
| Aircraft | B738/M-SDE2E3FGHIRWXY/LB1 |
Departure
| Time | 2026-04-22 16:23 |
|---|---|
| Airport | Tunis Carthage International Airport (DTTA) |
Arrival
| Time | 2026-04-22 20:02 |
|---|---|
| Airport | Diori Hamani International Airport (DRRN) |
| Time | Latitude | Longitude | Altitude | Speed | Heading |
|---|---|---|---|---|---|
| 2026-04-22 16:20 | 36.83874 | 10.22215 | 30 ft | 0 kts | 72° |
| 2026-04-22 16:21 | 36.83892 | 10.22275 | 28 ft | 16 kts | 57° |
| 2026-04-22 16:22 | 36.84012 | 10.22403 | 30 ft | 3 kts | 12° |
| 2026-04-22 16:22 | 36.84176 | 10.22444 | 30 ft | 58 kts | 12° |
| 2026-04-22 16:22 | 36.84798 | 10.22617 | 31 ft | 123 kts | 12° |
| 2026-04-22 16:23 | 36.86995 | 10.23167 | 731 ft | 176 kts | 11° |
| 2026-04-22 16:23 | 36.88219 | 10.23412 | 1468 ft | 184 kts | 9° |
| 2026-04-22 16:23 | 36.89561 | 10.23661 | 1978 ft | 202 kts | 12° |
| 2026-04-22 16:24 | 36.90935 | 10.24051 | 2669 ft | 200 kts | 15° |
| 2026-04-22 16:24 | 36.93647 | 10.23580 | 3558 ft | 232 kts | 319° |
| 2026-04-22 16:24 | 36.94429 | 10.21760 | 3872 ft | 250 kts | 276° |
| 2026-04-22 16:25 | 36.94112 | 10.19589 | 4442 ft | 264 kts | 243° |
| 2026-04-22 16:25 | 36.90988 | 10.16418 | 5119 ft | 310 kts | 206° |
| 2026-04-22 16:25 | 36.88979 | 10.15556 | 6292 ft | 300 kts | 196° |
| 2026-04-22 16:26 | 36.86971 | 10.14958 | 7255 ft | 297 kts | 195° |
| 2026-04-22 16:26 | 36.84924 | 10.14302 | 7763 ft | 312 kts | 198° |
| 2026-04-22 16:26 | 36.82794 | 10.13525 | 8272 ft | 323 kts | 199° |
| 2026-04-22 16:26 | 36.80666 | 10.12732 | 9088 ft | 324 kts | 199° |
| 2026-04-22 16:27 | 36.78500 | 10.11932 | 9896 ft | 326 kts | 199° |
| 2026-04-22 16:27 | 36.76312 | 10.11104 | 10541 ft | 331 kts | 201° |
| 2026-04-22 16:27 | 36.74080 | 10.10203 | 10961 ft | 345 kts | 201° |
| 2026-04-22 16:27 | 36.71758 | 10.09259 | 11351 ft | 357 kts | 200° |
| 2026-04-22 16:28 | 36.69344 | 10.08356 | 11900 ft | 365 kts | 199° |
| 2026-04-22 16:28 | 36.66894 | 10.07475 | 12526 ft | 369 kts | 199° |
| 2026-04-22 16:28 | 36.64404 | 10.06583 | 13177 ft | 373 kts | 199° |
| 2026-04-22 16:28 | 36.61905 | 10.05680 | 13837 ft | 376 kts | 200° |
| 2026-04-22 16:29 | 36.59376 | 10.04756 | 14440 ft | 379 kts | 200° |
| 2026-04-22 16:29 | 36.56838 | 10.03823 | 15075 ft | 381 kts | 200° |
| 2026-04-22 16:29 | 36.54283 | 10.02879 | 15685 ft | 384 kts | 200° |
| 2026-04-22 16:29 | 36.51711 | 10.01928 | 16303 ft | 387 kts | 200° |
| 2026-04-22 16:30 | 36.50004 | 10.01297 | 16688 ft | 389 kts | 200° |
| 2026-04-22 16:30 | 36.46509 | 10.00004 | 17489 ft | 393 kts | 200° |
| 2026-04-22 16:30 | 36.43914 | 9.99045 | 18090 ft | 395 kts | 200° |
| 2026-04-22 16:30 | 36.41266 | 9.98067 | 18617 ft | 398 kts | 200° |
| 2026-04-22 16:31 | 36.38603 | 9.97085 | 19127 ft | 401 kts | 200° |
| 2026-04-22 16:31 | 36.35921 | 9.96096 | 19643 ft | 403 kts | 200° |
| 2026-04-22 16:31 | 36.33217 | 9.95099 | 20140 ft | 407 kts | 200° |
| 2026-04-22 16:31 | 36.30501 | 9.94100 | 20644 ft | 408 kts | 200° |
| 2026-04-22 16:32 | 36.27777 | 9.93051 | 21131 ft | 410 kts | 203° |
| 2026-04-22 16:32 | 36.25118 | 9.91765 | 21609 ft | 411 kts | 206° |
| 2026-04-22 16:32 | 36.22473 | 9.90375 | 22060 ft | 414 kts | 206° |
| 2026-04-22 16:32 | 36.19818 | 9.88952 | 22509 ft | 416 kts | 207° |
| 2026-04-22 16:33 | 36.17151 | 9.87527 | 22969 ft | 419 kts | 206° |
| 2026-04-22 16:33 | 36.14463 | 9.86105 | 23422 ft | 422 kts | 206° |
| 2026-04-22 16:33 | 36.11781 | 9.84702 | 23816 ft | 424 kts | 206° |
| 2026-04-22 16:33 | 36.09054 | 9.83284 | 24158 ft | 426 kts | 206° |
| 2026-04-22 16:34 | 36.06317 | 9.81870 | 24583 ft | 426 kts | 206° |
| 2026-04-22 16:34 | 36.03573 | 9.80457 | 24981 ft | 427 kts | 206° |
| 2026-04-22 16:34 | 36.00824 | 9.79043 | 25347 ft | 430 kts | 206° |
| 2026-04-22 16:34 | 35.98053 | 9.77618 | 25705 ft | 431 kts | 206° |
| 2026-04-22 16:35 | 35.95276 | 9.76190 | 26053 ft | 433 kts | 206° |
| 2026-04-22 16:35 | 35.92484 | 9.74754 | 26406 ft | 435 kts | 206° |
| 2026-04-22 16:35 | 35.89683 | 9.73313 | 26747 ft | 437 kts | 205° |
| 2026-04-22 16:35 | 35.86876 | 9.71873 | 27089 ft | 438 kts | 205° |
| 2026-04-22 16:36 | 35.84050 | 9.70425 | 27373 ft | 441 kts | 206° |
| 2026-04-22 16:36 | 35.81209 | 9.68970 | 27668 ft | 443 kts | 206° |
| 2026-04-22 16:36 | 35.78350 | 9.67506 | 27996 ft | 445 kts | 206° |
| 2026-04-22 16:36 | 35.75492 | 9.66043 | 28319 ft | 446 kts | 206° |
| 2026-04-22 16:37 | 35.72609 | 9.64570 | 28611 ft | 448 kts | 206° |
| 2026-04-22 16:37 | 35.69731 | 9.63080 | 28897 ft | 449 kts | 207° |
| 2026-04-22 16:37 | 35.66877 | 9.61517 | 29297 ft | 448 kts | 207° |
| 2026-04-22 16:37 | 35.64052 | 9.59925 | 29768 ft | 445 kts | 207° |
| 2026-04-22 16:38 | 35.61284 | 9.58357 | 30171 ft | 444 kts | 208° |
| 2026-04-22 16:38 | 35.58492 | 9.56772 | 30520 ft | 442 kts | 208° |
| 2026-04-22 16:38 | 35.55690 | 9.55189 | 30831 ft | 442 kts | 208° |
| 2026-04-22 16:38 | 35.52902 | 9.53629 | 31204 ft | 439 kts | 208° |
| 2026-04-22 16:39 | 35.50123 | 9.52077 | 31521 ft | 438 kts | 208° |
| 2026-04-22 16:39 | 35.47347 | 9.50525 | 31803 ft | 440 kts | 208° |
| 2026-04-22 16:39 | 35.44578 | 9.48980 | 32273 ft | 435 kts | 208° |
| 2026-04-22 16:39 | 35.41826 | 9.47447 | 32682 ft | 432 kts | 208° |
| 2026-04-22 16:40 | 35.39078 | 9.45921 | 32941 ft | 433 kts | 207° |
| 2026-04-22 16:40 | 35.36321 | 9.44394 | 33115 ft | 435 kts | 208° |
| 2026-04-22 16:40 | 35.30857 | 9.41367 | 33850 ft | 429 kts | 208° |
| 2026-04-22 16:41 | 35.28163 | 9.39871 | 33927 ft | 432 kts | 208° |
| 2026-04-22 16:41 | 35.22681 | 9.36827 | 33935 ft | 432 kts | 208° |
| 2026-04-22 16:42 | 35.17229 | 9.33817 | 33930 ft | 427 kts | 208° |
| 2026-04-22 16:42 | 35.11843 | 9.30837 | 33924 ft | 424 kts | 208° |
| 2026-04-22 16:43 | 35.06443 | 9.27871 | 33941 ft | 427 kts | 208° |
| 2026-04-22 16:43 | 35.00974 | 9.24852 | 33940 ft | 434 kts | 208° |
| 2026-04-22 16:44 | 34.95489 | 9.21840 | 33934 ft | 435 kts | 208° |
| 2026-04-22 16:44 | 34.89969 | 9.18814 | 33928 ft | 436 kts | 206° |
| 2026-04-22 16:45 | 34.84036 | 9.17014 | 33923 ft | 446 kts | 189° |
| 2026-04-22 16:45 | 34.77753 | 9.17145 | 34235 ft | 452 kts | 181° |
| 2026-04-22 16:45 | 34.74621 | 9.17359 | 34517 ft | 450 kts | 181° |
| 2026-04-22 16:46 | 34.71500 | 9.17567 | 34819 ft | 447 kts | 182° |
| 2026-04-22 16:46 | 34.65255 | 9.17941 | 34908 ft | 450 kts | 182° |
| 2026-04-22 16:47 | 34.59006 | 9.18288 | 34888 ft | 447 kts | 182° |
| 2026-04-22 16:47 | 34.53860 | 9.18567 | 34895 ft | 443 kts | 182° |
| 2026-04-22 16:48 | 34.46706 | 9.18951 | 34888 ft | 439 kts | 182° |
| 2026-04-22 16:48 | 34.40609 | 9.19277 | 34909 ft | 444 kts | 182° |
| 2026-04-22 16:49 | 34.34387 | 9.19613 | 34871 ft | 448 kts | 182° |
| 2026-04-22 16:49 | 34.28154 | 9.19947 | 34881 ft | 449 kts | 182° |
| 2026-04-22 16:50 | 34.22956 | 9.20226 | 34871 ft | 449 kts | 182° |
| 2026-04-22 16:50 | 34.15703 | 9.20489 | 34862 ft | 447 kts | 184° |
| 2026-04-22 16:51 | 34.10494 | 9.20577 | 34858 ft | 446 kts | 184° |
| 2026-04-22 16:51 | 34.04284 | 9.20680 | 34848 ft | 446 kts | 184° |
| 2026-04-22 16:52 | 33.98117 | 9.20800 | 34858 ft | 445 kts | 184° |
| 2026-04-22 16:52 | 33.91932 | 9.20930 | 34851 ft | 444 kts | 183° |
| 2026-04-22 16:53 | 33.85745 | 9.21062 | 34840 ft | 443 kts | 183° |
| 2026-04-22 16:53 | 33.79586 | 9.21191 | 34854 ft | 443 kts | 183° |
| 2026-04-22 16:54 | 33.73465 | 9.21320 | 34851 ft | 442 kts | 183° |
| 2026-04-22 16:54 | 33.67311 | 9.21450 | 34855 ft | 442 kts | 183° |
| 2026-04-22 16:55 | 33.61144 | 9.21579 | 34852 ft | 443 kts | 183° |
| 2026-04-22 16:55 | 33.54980 | 9.21709 | 34849 ft | 443 kts | 183° |
| 2026-04-22 16:56 | 33.48803 | 9.21838 | 34854 ft | 443 kts | 183° |
| 2026-04-22 16:56 | 33.42666 | 9.21966 | 34852 ft | 444 kts | 183° |
| 2026-04-22 16:57 | 33.36487 | 9.22096 | 34852 ft | 444 kts | 183° |
| 2026-04-22 16:57 | 33.30316 | 9.22226 | 34852 ft | 443 kts | 184° |
| 2026-04-22 16:58 | 33.24153 | 9.22355 | 34848 ft | 443 kts | 184° |
| 2026-04-22 16:58 | 33.17985 | 9.22483 | 34853 ft | 443 kts | 184° |
| 2026-04-22 16:59 | 33.11831 | 9.22611 | 34854 ft | 443 kts | 184° |
| 2026-04-22 16:59 | 33.05673 | 9.22737 | 34854 ft | 443 kts | 184° |
| 2026-04-22 17:00 | 32.99508 | 9.22864 | 34849 ft | 442 kts | 184° |
| 2026-04-22 17:00 | 32.90317 | 9.23056 | 34849 ft | 442 kts | 184° |
| 2026-04-22 17:01 | 32.84164 | 9.23182 | 34855 ft | 442 kts | 184° |
| 2026-04-22 17:01 | 32.78013 | 9.23310 | 34850 ft | 441 kts | 184° |
| 2026-04-22 17:02 | 32.71869 | 9.23437 | 34848 ft | 441 kts | 184° |
| 2026-04-22 17:02 | 32.65770 | 9.23561 | 34856 ft | 441 kts | 184° |
| 2026-04-22 17:03 | 32.59627 | 9.23689 | 34838 ft | 441 kts | 184° |
| 2026-04-22 17:03 | 32.53487 | 9.23807 | 34828 ft | 441 kts | 184° |
| 2026-04-22 17:04 | 32.47362 | 9.23933 | 34848 ft | 440 kts | 183° |
| 2026-04-22 17:04 | 32.41248 | 9.24061 | 34844 ft | 439 kts | 184° |
| 2026-04-22 17:05 | 32.35137 | 9.24196 | 34839 ft | 439 kts | 184° |
| 2026-04-22 17:05 | 32.29035 | 9.24317 | 34842 ft | 439 kts | 184° |
| 2026-04-22 17:06 | 32.22921 | 9.24439 | 34835 ft | 439 kts | 184° |
| 2026-04-22 17:06 | 32.16801 | 9.24564 | 34833 ft | 440 kts | 184° |
| 2026-04-22 17:07 | 32.10719 | 9.24687 | 34837 ft | 441 kts | 183° |
| 2026-04-22 17:07 | 32.04576 | 9.24812 | 34825 ft | 441 kts | 184° |
| 2026-04-22 17:08 | 31.98438 | 9.24935 | 34835 ft | 441 kts | 183° |
| 2026-04-22 17:08 | 31.92293 | 9.25061 | 34826 ft | 441 kts | 183° |
| 2026-04-22 17:09 | 31.86143 | 9.25187 | 34828 ft | 441 kts | 183° |
| 2026-04-22 17:09 | 31.80054 | 9.25310 | 34825 ft | 441 kts | 183° |
| 2026-04-22 17:10 | 31.73913 | 9.25363 | 34816 ft | 438 kts | 189° |
| 2026-04-22 17:10 | 31.68103 | 9.23686 | 34816 ft | 427 kts | 207° |
| 2026-04-22 17:11 | 31.62960 | 9.20326 | 34815 ft | 423 kts | 214° |
| 2026-04-22 17:11 | 31.57919 | 9.16757 | 34821 ft | 422 kts | 214° |
| 2026-04-22 17:12 | 31.52874 | 9.13220 | 34818 ft | 423 kts | 214° |
| 2026-04-22 17:12 | 31.47816 | 9.09710 | 34815 ft | 423 kts | 214° |
| 2026-04-22 17:13 | 31.42742 | 9.06203 | 34810 ft | 423 kts | 213° |
| 2026-04-22 17:13 | 31.37698 | 9.02723 | 34818 ft | 424 kts | 213° |
| 2026-04-22 17:14 | 31.32608 | 8.99227 | 34811 ft | 424 kts | 213° |
| 2026-04-22 17:14 | 31.27510 | 8.95732 | 34810 ft | 424 kts | 213° |
| 2026-04-22 17:15 | 31.22428 | 8.92209 | 34818 ft | 425 kts | 214° |
| 2026-04-22 17:15 | 31.17323 | 8.88698 | 34816 ft | 426 kts | 213° |
| 2026-04-22 17:16 | 31.12234 | 8.85228 | 34794 ft | 425 kts | 213° |
| 2026-04-22 17:16 | 31.07133 | 8.81723 | 34800 ft | 425 kts | 213° |
| 2026-04-22 17:17 | 31.02026 | 8.78287 | 34809 ft | 423 kts | 213° |
| 2026-04-22 17:17 | 30.96959 | 8.74805 | 34803 ft | 423 kts | 213° |
| 2026-04-22 17:18 | 30.91897 | 8.71326 | 34802 ft | 423 kts | 213° |
| 2026-04-22 17:18 | 30.86823 | 8.67860 | 34805 ft | 423 kts | 213° |
| 2026-04-22 17:19 | 30.76696 | 8.60971 | 34798 ft | 422 kts | 213° |
| 2026-04-22 17:20 | 30.66525 | 8.54075 | 34799 ft | 424 kts | 213° |
| 2026-04-22 17:21 | 30.58888 | 8.48901 | 34804 ft | 423 kts | 213° |
| 2026-04-22 17:22 | 30.51279 | 8.43758 | 34795 ft | 423 kts | 213° |
| 2026-04-22 17:23 | 30.43656 | 8.38601 | 34800 ft | 422 kts | 213° |
| 2026-04-22 17:23 | 30.36071 | 8.33454 | 34801 ft | 421 kts | 213° |
| 2026-04-22 17:24 | 30.31011 | 8.30025 | 34805 ft | 421 kts | 213° |
| 2026-04-22 17:24 | 30.25949 | 8.26598 | 34794 ft | 421 kts | 213° |
| 2026-04-22 17:25 | 30.20897 | 8.23178 | 34798 ft | 421 kts | 213° |
| 2026-04-22 17:25 | 30.15874 | 8.19792 | 34793 ft | 420 kts | 213° |
| 2026-04-22 17:26 | 30.10810 | 8.16387 | 34798 ft | 420 kts | 213° |
| 2026-04-22 17:26 | 30.05754 | 8.12975 | 34804 ft | 420 kts | 213° |
| 2026-04-22 17:27 | 30.00719 | 8.09549 | 34803 ft | 421 kts | 213° |
| 2026-04-22 17:27 | 29.95668 | 8.06110 | 34815 ft | 422 kts | 213° |
| 2026-04-22 17:28 | 29.90610 | 8.02670 | 34808 ft | 423 kts | 213° |
| 2026-04-22 17:28 | 29.85536 | 7.99220 | 34790 ft | 424 kts | 213° |
| 2026-04-22 17:29 | 29.80467 | 7.95797 | 34799 ft | 425 kts | 212° |
| 2026-04-22 17:29 | 29.75342 | 7.92315 | 34800 ft | 425 kts | 214° |
| 2026-04-22 17:30 | 29.70251 | 7.88869 | 34804 ft | 424 kts | 212° |
| 2026-04-22 17:30 | 29.65168 | 7.85483 | 34800 ft | 424 kts | 212° |
| 2026-04-22 17:31 | 29.60091 | 7.82079 | 34796 ft | 423 kts | 213° |
| 2026-04-22 17:31 | 29.55026 | 7.78676 | 34792 ft | 420 kts | 213° |
| 2026-04-22 17:32 | 29.49996 | 7.75298 | 34803 ft | 417 kts | 213° |
| 2026-04-22 17:32 | 29.45020 | 7.71952 | 34795 ft | 416 kts | 213° |
| 2026-04-22 17:33 | 29.40087 | 7.68561 | 34805 ft | 412 kts | 213° |
| 2026-04-22 17:33 | 29.35143 | 7.65246 | 34797 ft | 410 kts | 213° |
| 2026-04-22 17:34 | 29.30240 | 7.61931 | 34796 ft | 411 kts | 213° |
| 2026-04-22 17:34 | 29.25334 | 7.58608 | 34799 ft | 408 kts | 213° |
| 2026-04-22 17:35 | 29.20455 | 7.55302 | 34794 ft | 410 kts | 213° |
| 2026-04-22 17:35 | 29.15533 | 7.51991 | 34797 ft | 409 kts | 213° |
| 2026-04-22 17:36 | 29.10626 | 7.48697 | 34791 ft | 408 kts | 213° |
| 2026-04-22 17:36 | 29.05752 | 7.45422 | 34805 ft | 406 kts | 213° |
| 2026-04-22 17:37 | 29.00881 | 7.42145 | 34809 ft | 407 kts | 213° |
| 2026-04-22 17:37 | 28.95974 | 7.38850 | 34807 ft | 409 kts | 213° |
| 2026-04-22 17:38 | 28.91088 | 7.35579 | 34796 ft | 409 kts | 213° |
| 2026-04-22 17:38 | 28.86165 | 7.32282 | 34800 ft | 411 kts | 213° |
| 2026-04-22 17:39 | 28.81241 | 7.28979 | 34793 ft | 411 kts | 213° |
| 2026-04-22 17:40 | 28.73808 | 7.24011 | 34774 ft | 412 kts | 213° |
| 2026-04-22 17:40 | 28.68850 | 7.20708 | 34790 ft | 413 kts | 213° |
| 2026-04-22 17:41 | 28.63906 | 7.17421 | 34789 ft | 412 kts | 213° |
| 2026-04-22 17:41 | 28.58948 | 7.14115 | 34798 ft | 414 kts | 213° |
| 2026-04-22 17:42 | 28.54811 | 7.11366 | 34796 ft | 414 kts | 213° |
| 2026-04-22 17:42 | 28.49823 | 7.08063 | 34793 ft | 414 kts | 212° |
| 2026-04-22 17:43 | 28.44852 | 7.04772 | 34792 ft | 413 kts | 213° |
| 2026-04-22 17:43 | 28.39869 | 7.01460 | 34790 ft | 413 kts | 213° |
| 2026-04-22 17:44 | 28.34906 | 6.98168 | 34792 ft | 413 kts | 213° |
| 2026-04-22 17:44 | 28.29951 | 6.94890 | 34789 ft | 412 kts | 213° |
| 2026-04-22 17:45 | 28.25029 | 6.91638 | 34806 ft | 413 kts | 213° |
| 2026-04-22 17:45 | 28.22497 | 6.89965 | 34937 ft | 415 kts | 213° |
| 2026-04-22 17:45 | 28.20046 | 6.88348 | 35203 ft | 413 kts | 213° |
| 2026-04-22 17:45 | 28.17561 | 6.86710 | 35392 ft | 414 kts | 213° |
| 2026-04-22 17:46 | 28.15072 | 6.85079 | 35538 ft | 416 kts | 211° |
| 2026-04-22 17:46 | 28.12416 | 6.83704 | 35729 ft | 419 kts | 204° |
| 2026-04-22 17:46 | 28.09593 | 6.82788 | 35779 ft | 425 kts | 198° |
| 2026-04-22 17:47 | 28.03798 | 6.81265 | 35783 ft | 428 kts | 197° |
| 2026-04-22 17:47 | 27.98016 | 6.79755 | 35775 ft | 423 kts | 197° |
| 2026-04-22 17:48 | 27.92307 | 6.78235 | 35778 ft | 420 kts | 198° |
| 2026-04-22 17:48 | 27.86633 | 6.76707 | 35781 ft | 419 kts | 198° |
| 2026-04-22 17:49 | 27.80924 | 6.75166 | 35791 ft | 425 kts | 198° |
| 2026-04-22 17:49 | 27.75158 | 6.73614 | 35784 ft | 430 kts | 198° |
| 2026-04-22 17:50 | 27.69329 | 6.72049 | 35787 ft | 431 kts | 198° |
| 2026-04-22 17:50 | 27.63469 | 6.70479 | 35781 ft | 432 kts | 198° |
| 2026-04-22 17:51 | 27.57633 | 6.68915 | 35780 ft | 431 kts | 198° |
| 2026-04-22 17:51 | 27.51790 | 6.67352 | 35780 ft | 430 kts | 198° |
| 2026-04-22 17:52 | 27.45969 | 6.65796 | 35772 ft | 429 kts | 198° |
| 2026-04-22 17:52 | 27.40217 | 6.64259 | 35776 ft | 427 kts | 198° |
| 2026-04-22 17:53 | 27.34436 | 6.62717 | 35783 ft | 425 kts | 198° |
| 2026-04-22 17:53 | 27.28688 | 6.61187 | 35775 ft | 424 kts | 197° |
| 2026-04-22 17:54 | 27.22937 | 6.59652 | 35776 ft | 423 kts | 197° |
| 2026-04-22 17:54 | 27.17234 | 6.58138 | 35779 ft | 422 kts | 198° |
| 2026-04-22 17:55 | 27.11519 | 6.56620 | 35780 ft | 421 kts | 197° |
| 2026-04-22 17:55 | 27.05852 | 6.55115 | 35788 ft | 421 kts | 197° |
| 2026-04-22 17:56 | 27.00137 | 6.53600 | 35771 ft | 421 kts | 198° |
| 2026-04-22 17:56 | 26.94431 | 6.52088 | 35782 ft | 421 kts | 198° |
| 2026-04-22 17:57 | 26.88723 | 6.50578 | 35782 ft | 422 kts | 198° |
| 2026-04-22 17:57 | 26.83018 | 6.49070 | 35789 ft | 422 kts | 198° |
| 2026-04-22 17:58 | 26.77324 | 6.47566 | 35770 ft | 422 kts | 198° |
| 2026-04-22 17:58 | 26.71609 | 6.46061 | 35742 ft | 423 kts | 198° |
| 2026-04-22 17:59 | 26.65825 | 6.44534 | 35777 ft | 431 kts | 198° |
| 2026-04-22 17:59 | 26.59939 | 6.42984 | 35797 ft | 436 kts | 198° |
| 2026-04-22 18:00 | 26.55011 | 6.41687 | 35784 ft | 438 kts | 198° |
| 2026-04-22 18:00 | 26.48087 | 6.39868 | 35792 ft | 439 kts | 198° |
| 2026-04-22 18:01 | 26.42123 | 6.38304 | 35783 ft | 440 kts | 198° |
| 2026-04-22 18:01 | 26.36160 | 6.36743 | 35799 ft | 439 kts | 198° |
| 2026-04-22 18:02 | 26.30215 | 6.35189 | 35804 ft | 438 kts | 198° |
| 2026-04-22 18:02 | 26.24297 | 6.33640 | 35809 ft | 436 kts | 199° |
| 2026-04-22 18:03 | 26.18423 | 6.32105 | 35824 ft | 435 kts | 199° |
| 2026-04-22 18:03 | 26.12536 | 6.30568 | 35820 ft | 434 kts | 199° |
| 2026-04-22 18:04 | 26.06651 | 6.29032 | 35826 ft | 433 kts | 199° |
| 2026-04-22 18:04 | 26.00800 | 6.27508 | 35835 ft | 433 kts | 199° |
| 2026-04-22 18:05 | 25.94928 | 6.25968 | 35837 ft | 432 kts | 199° |
| 2026-04-22 18:05 | 25.89072 | 6.24409 | 35846 ft | 432 kts | 199° |
| 2026-04-22 18:06 | 25.83261 | 6.22856 | 35850 ft | 434 kts | 199° |
| 2026-04-22 18:06 | 25.77361 | 6.21295 | 35843 ft | 436 kts | 200° |
| 2026-04-22 18:07 | 25.71435 | 6.19725 | 35854 ft | 439 kts | 200° |
| 2026-04-22 18:07 | 25.65481 | 6.18156 | 35868 ft | 440 kts | 200° |
| 2026-04-22 18:08 | 25.59507 | 6.16578 | 35869 ft | 442 kts | 200° |
| 2026-04-22 18:08 | 25.53505 | 6.14994 | 35851 ft | 444 kts | 199° |
| 2026-04-22 18:09 | 25.47533 | 6.13424 | 35856 ft | 444 kts | 200° |
| 2026-04-22 18:09 | 25.41524 | 6.11842 | 35860 ft | 443 kts | 200° |
| 2026-04-22 18:10 | 25.35504 | 6.10259 | 35862 ft | 443 kts | 200° |
| 2026-04-22 18:10 | 25.29535 | 6.08692 | 35856 ft | 443 kts | 201° |
| 2026-04-22 18:11 | 25.23536 | 6.07119 | 35867 ft | 442 kts | 201° |
| 2026-04-22 18:11 | 25.17535 | 6.05544 | 35866 ft | 443 kts | 202° |
| 2026-04-22 18:12 | 25.11529 | 6.03971 | 35866 ft | 444 kts | 202° |
| 2026-04-22 18:12 | 25.06527 | 6.02662 | 35876 ft | 445 kts | 202° |
| 2026-04-22 18:13 | 24.99496 | 6.00825 | 35874 ft | 447 kts | 202° |
| 2026-04-22 18:13 | 24.93434 | 5.99242 | 35871 ft | 448 kts | 201° |
| 2026-04-22 18:14 | 24.87356 | 5.97657 | 35851 ft | 449 kts | 202° |
| 2026-04-22 18:14 | 24.81277 | 5.96076 | 35875 ft | 449 kts | 202° |
| 2026-04-22 18:15 | 24.75196 | 5.94493 | 35878 ft | 449 kts | 202° |
| 2026-04-22 18:15 | 24.69113 | 5.92912 | 35879 ft | 449 kts | 202° |
| 2026-04-22 18:16 | 24.63039 | 5.91338 | 35886 ft | 447 kts | 202° |
| 2026-04-22 18:16 | 24.56984 | 5.89765 | 35884 ft | 447 kts | 202° |
| 2026-04-22 18:17 | 24.50932 | 5.88194 | 35891 ft | 447 kts | 202° |
| 2026-04-22 18:17 | 24.44923 | 5.86640 | 35903 ft | 446 kts | 202° |
| 2026-04-22 18:18 | 24.38874 | 5.85075 | 35897 ft | 447 kts | 202° |
| 2026-04-22 18:18 | 24.32822 | 5.83510 | 35900 ft | 447 kts | 202° |
| 2026-04-22 18:19 | 24.26775 | 5.81948 | 35860 ft | 446 kts | 202° |
| 2026-04-22 18:19 | 24.20744 | 5.80393 | 35889 ft | 445 kts | 202° |
| 2026-04-22 18:20 | 24.14700 | 5.78831 | 35904 ft | 446 kts | 202° |
| 2026-04-22 18:20 | 24.08645 | 5.77271 | 35913 ft | 447 kts | 202° |
| 2026-04-22 18:21 | 24.02623 | 5.75723 | 35902 ft | 448 kts | 202° |
| 2026-04-22 18:21 | 23.96541 | 5.74161 | 35914 ft | 449 kts | 202° |
| 2026-04-22 18:22 | 23.90450 | 5.72597 | 35906 ft | 450 kts | 202° |
| 2026-04-22 18:22 | 23.84359 | 5.71035 | 35913 ft | 450 kts | 203° |
| 2026-04-22 18:23 | 23.78247 | 5.69468 | 35921 ft | 452 kts | 203° |
| 2026-04-22 18:23 | 23.72122 | 5.67900 | 35944 ft | 453 kts | 203° |
| 2026-04-22 18:24 | 23.62885 | 5.65538 | 35940 ft | 455 kts | 203° |
| 2026-04-22 18:25 | 23.53633 | 5.63176 | 35936 ft | 455 kts | 203° |
| 2026-04-22 18:25 | 23.47495 | 5.61612 | 35959 ft | 456 kts | 203° |
| 2026-04-22 18:26 | 23.38213 | 5.59248 | 35969 ft | 457 kts | 203° |
| 2026-04-22 18:26 | 23.32015 | 5.57673 | 35936 ft | 458 kts | 204° |
| 2026-04-22 18:27 | 23.25812 | 5.56096 | 35966 ft | 458 kts | 204° |
| 2026-04-22 18:27 | 23.19605 | 5.54523 | 35982 ft | 458 kts | 204° |
| 2026-04-22 18:28 | 23.13391 | 5.52945 | 35986 ft | 459 kts | 204° |
| 2026-04-22 18:28 | 23.07169 | 5.51367 | 36009 ft | 458 kts | 204° |
| 2026-04-22 18:29 | 23.00959 | 5.49798 | 36019 ft | 458 kts | 204° |
| 2026-04-22 18:29 | 22.94749 | 5.48226 | 36068 ft | 458 kts | 205° |
| 2026-04-22 18:30 | 22.85464 | 5.45877 | 36105 ft | 458 kts | 205° |
| 2026-04-22 18:31 | 22.79289 | 5.44236 | 36100 ft | 453 kts | 208° |
| 2026-04-22 18:31 | 22.74324 | 5.42508 | 36109 ft | 450 kts | 210° |
| 2026-04-22 18:32 | 22.68394 | 5.40330 | 36027 ft | 450 kts | 211° |
| 2026-04-22 18:32 | 22.62476 | 5.38174 | 36014 ft | 449 kts | 210° |
| 2026-04-22 18:33 | 22.56537 | 5.36040 | 35976 ft | 449 kts | 211° |
| 2026-04-22 18:33 | 22.50608 | 5.33924 | 35918 ft | 449 kts | 211° |
| 2026-04-22 18:34 | 22.44657 | 5.31808 | 35866 ft | 450 kts | 211° |
| 2026-04-22 18:34 | 22.38723 | 5.29699 | 35882 ft | 451 kts | 211° |
| 2026-04-22 18:35 | 22.32738 | 5.27573 | 35856 ft | 453 kts | 211° |
| 2026-04-22 18:35 | 22.26743 | 5.25444 | 35859 ft | 455 kts | 211° |
| 2026-04-22 18:36 | 22.20717 | 5.23309 | 35853 ft | 455 kts | 211° |
| 2026-04-22 18:36 | 22.14689 | 5.21172 | 35851 ft | 457 kts | 211° |
| 2026-04-22 18:37 | 22.08645 | 5.19035 | 35847 ft | 457 kts | 211° |
| 2026-04-22 18:37 | 22.02634 | 5.16912 | 35821 ft | 456 kts | 211° |
| 2026-04-22 18:38 | 21.96602 | 5.14783 | 35836 ft | 455 kts | 211° |
| 2026-04-22 18:38 | 21.90582 | 5.12657 | 35836 ft | 454 kts | 211° |
| 2026-04-22 18:39 | 21.81584 | 5.09483 | 35844 ft | 453 kts | 211° |
| 2026-04-22 18:39 | 21.75632 | 5.07386 | 35841 ft | 453 kts | 211° |
| 2026-04-22 18:40 | 21.69615 | 5.05269 | 35804 ft | 451 kts | 212° |
| 2026-04-22 18:40 | 21.63648 | 5.03173 | 35832 ft | 451 kts | 212° |
| 2026-04-22 18:41 | 21.57719 | 5.01087 | 35835 ft | 451 kts | 212° |
| 2026-04-22 18:41 | 21.51728 | 4.98982 | 35845 ft | 452 kts | 212° |
| 2026-04-22 18:42 | 21.45732 | 4.96879 | 35838 ft | 453 kts | 212° |
| 2026-04-22 18:42 | 21.39779 | 4.94793 | 35826 ft | 454 kts | 212° |
| 2026-04-22 18:43 | 21.33765 | 4.92689 | 35841 ft | 454 kts | 212° |
| 2026-04-22 18:43 | 21.27743 | 4.90581 | 35836 ft | 455 kts | 212° |
| 2026-04-22 18:44 | 21.21709 | 4.88470 | 35836 ft | 456 kts | 212° |
| 2026-04-22 18:44 | 21.15658 | 4.86358 | 35839 ft | 457 kts | 212° |
| 2026-04-22 18:45 | 21.09595 | 4.84245 | 35837 ft | 458 kts | 211° |
| 2026-04-22 18:45 | 21.03571 | 4.82146 | 35828 ft | 458 kts | 212° |
| 2026-04-22 18:46 | 20.97510 | 4.80034 | 35833 ft | 458 kts | 212° |
| 2026-04-22 18:46 | 20.91441 | 4.77922 | 35834 ft | 458 kts | 211° |
| 2026-04-22 18:47 | 20.85375 | 4.75814 | 35835 ft | 458 kts | 211° |
| 2026-04-22 18:47 | 20.79310 | 4.73708 | 35825 ft | 458 kts | 211° |
| 2026-04-22 18:48 | 20.73243 | 4.71603 | 35806 ft | 458 kts | 211° |
| 2026-04-22 18:48 | 20.67232 | 4.69519 | 35820 ft | 456 kts | 211° |
| 2026-04-22 18:49 | 20.61187 | 4.67424 | 35830 ft | 456 kts | 211° |
| 2026-04-22 18:49 | 20.55153 | 4.65334 | 35829 ft | 456 kts | 211° |
| 2026-04-22 18:50 | 20.49124 | 4.63248 | 35830 ft | 456 kts | 211° |
| 2026-04-22 18:50 | 20.43087 | 4.61161 | 35832 ft | 456 kts | 211° |
| 2026-04-22 18:51 | 20.37057 | 4.59077 | 35827 ft | 455 kts | 211° |
| 2026-04-22 18:51 | 20.31027 | 4.56997 | 35822 ft | 456 kts | 211° |
| 2026-04-22 18:52 | 20.24986 | 4.54914 | 35825 ft | 456 kts | 211° |
| 2026-04-22 18:52 | 20.18953 | 4.52833 | 35832 ft | 456 kts | 211° |
| 2026-04-22 18:53 | 20.12945 | 4.50766 | 35838 ft | 456 kts | 211° |
| 2026-04-22 18:53 | 20.06892 | 4.48686 | 35804 ft | 456 kts | 210° |
| 2026-04-22 18:54 | 20.00856 | 4.46611 | 35826 ft | 456 kts | 210° |
| 2026-04-22 18:54 | 19.94816 | 4.44535 | 35828 ft | 456 kts | 210° |
| 2026-04-22 18:55 | 19.88783 | 4.42469 | 35837 ft | 456 kts | 210° |
| 2026-04-22 18:55 | 19.82752 | 4.40404 | 35835 ft | 455 kts | 210° |
| 2026-04-22 18:56 | 19.76756 | 4.38347 | 35837 ft | 456 kts | 210° |
| 2026-04-22 18:56 | 19.70711 | 4.36279 | 35827 ft | 455 kts | 210° |
| 2026-04-22 18:57 | 19.64664 | 4.34208 | 35827 ft | 456 kts | 210° |
| 2026-04-22 18:57 | 19.58616 | 4.32139 | 35831 ft | 457 kts | 210° |
| 2026-04-22 18:58 | 19.52562 | 4.30071 | 35830 ft | 458 kts | 210° |
| 2026-04-22 18:58 | 19.46490 | 4.27999 | 35830 ft | 458 kts | 210° |
| 2026-04-22 18:59 | 19.40453 | 4.25940 | 35809 ft | 459 kts | 210° |
| 2026-04-22 18:59 | 19.34362 | 4.23865 | 35821 ft | 459 kts | 210° |
| 2026-04-22 19:00 | 19.28272 | 4.21793 | 35833 ft | 460 kts | 210° |
| 2026-04-22 19:00 | 19.22172 | 4.19716 | 35832 ft | 460 kts | 210° |
| 2026-04-22 19:01 | 19.16071 | 4.17642 | 35826 ft | 460 kts | 209° |
| 2026-04-22 19:01 | 19.09986 | 4.15550 | 35829 ft | 459 kts | 210° |
| 2026-04-22 19:02 | 19.03938 | 4.13377 | 35822 ft | 458 kts | 210° |
| 2026-04-22 19:02 | 18.97918 | 4.11202 | 35826 ft | 457 kts | 210° |
| 2026-04-22 19:03 | 18.91895 | 4.09037 | 35832 ft | 457 kts | 210° |
| 2026-04-22 19:03 | 18.85908 | 4.06893 | 35829 ft | 457 kts | 210° |
| 2026-04-22 19:04 | 18.79895 | 4.04745 | 35827 ft | 456 kts | 210° |
| 2026-04-22 19:04 | 18.73888 | 4.02600 | 35831 ft | 455 kts | 210° |
| 2026-04-22 19:05 | 18.67878 | 4.00457 | 35826 ft | 455 kts | 210° |
| 2026-04-22 19:05 | 18.61917 | 3.98333 | 35827 ft | 454 kts | 210° |
| 2026-04-22 19:06 | 18.55939 | 3.96203 | 35831 ft | 454 kts | 210° |
| 2026-04-22 19:07 | 18.46934 | 3.92995 | 35829 ft | 455 kts | 209° |
| 2026-04-22 19:07 | 18.40923 | 3.90855 | 35829 ft | 456 kts | 209° |
| 2026-04-22 19:08 | 18.34943 | 3.88729 | 35819 ft | 457 kts | 209° |
| 2026-04-22 19:08 | 18.28915 | 3.86583 | 35828 ft | 457 kts | 209° |
| 2026-04-22 19:09 | 18.22870 | 3.84438 | 35833 ft | 459 kts | 209° |
| 2026-04-22 19:09 | 18.17840 | 3.82658 | 35823 ft | 459 kts | 209° |
| 2026-04-22 19:10 | 18.10816 | 3.80169 | 35820 ft | 458 kts | 209° |
| 2026-04-22 19:10 | 18.04775 | 3.78030 | 35830 ft | 458 kts | 209° |
| 2026-04-22 19:11 | 17.98740 | 3.75896 | 35825 ft | 458 kts | 209° |
| 2026-04-22 19:11 | 17.92705 | 3.73762 | 35824 ft | 457 kts | 209° |
| 2026-04-22 19:12 | 17.86678 | 3.71631 | 35825 ft | 457 kts | 209° |
| 2026-04-22 19:12 | 17.80673 | 3.69513 | 35823 ft | 457 kts | 209° |
| 2026-04-22 19:13 | 17.74640 | 3.67384 | 35823 ft | 457 kts | 209° |
| 2026-04-22 19:13 | 17.68615 | 3.65258 | 35804 ft | 456 kts | 208° |
| 2026-04-22 19:14 | 17.62598 | 3.63139 | 35825 ft | 456 kts | 208° |
| 2026-04-22 19:14 | 17.56584 | 3.61022 | 35826 ft | 455 kts | 208° |
| 2026-04-22 19:15 | 17.51585 | 3.59261 | 35813 ft | 455 kts | 208° |
| 2026-04-22 19:15 | 17.44583 | 3.56800 | 35822 ft | 454 kts | 208° |
| 2026-04-22 19:16 | 17.38593 | 3.54694 | 35821 ft | 454 kts | 208° |
| 2026-04-22 19:16 | 17.32602 | 3.52588 | 35819 ft | 454 kts | 208° |
| 2026-04-22 19:17 | 17.26599 | 3.50486 | 35821 ft | 454 kts | 208° |
| 2026-04-22 19:17 | 17.20604 | 3.48391 | 35822 ft | 455 kts | 208° |
| 2026-04-22 19:18 | 17.14594 | 3.46289 | 35825 ft | 455 kts | 208° |
| 2026-04-22 19:18 | 17.08567 | 3.44181 | 35829 ft | 456 kts | 208° |
| 2026-04-22 19:19 | 17.02590 | 3.42093 | 35827 ft | 456 kts | 208° |
| 2026-04-22 19:19 | 16.96576 | 3.39989 | 35819 ft | 455 kts | 207° |
| 2026-04-22 19:20 | 16.90565 | 3.37893 | 35825 ft | 456 kts | 207° |
| 2026-04-22 19:20 | 16.85560 | 3.36148 | 35822 ft | 456 kts | 207° |
| 2026-04-22 19:21 | 16.79523 | 3.34040 | 35832 ft | 458 kts | 207° |
| 2026-04-22 19:21 | 16.73463 | 3.31931 | 35821 ft | 458 kts | 207° |
| 2026-04-22 19:22 | 16.67408 | 3.29826 | 35825 ft | 459 kts | 207° |
| 2026-04-22 19:22 | 16.61385 | 3.27729 | 35820 ft | 459 kts | 207° |
| 2026-04-22 19:23 | 16.55321 | 3.25621 | 35824 ft | 460 kts | 207° |
| 2026-04-22 19:23 | 16.49245 | 3.23511 | 35825 ft | 461 kts | 207° |
| 2026-04-22 19:24 | 16.43159 | 3.21397 | 35824 ft | 461 kts | 207° |
| 2026-04-22 19:24 | 16.37066 | 3.19281 | 35828 ft | 462 kts | 207° |
| 2026-04-22 19:25 | 16.30955 | 3.17163 | 35815 ft | 462 kts | 206° |
| 2026-04-22 19:25 | 16.24860 | 3.15054 | 35823 ft | 461 kts | 206° |
| 2026-04-22 19:26 | 16.18800 | 3.12955 | 35822 ft | 461 kts | 206° |
| 2026-04-22 19:26 | 16.12713 | 3.10853 | 35830 ft | 460 kts | 206° |
| 2026-04-22 19:27 | 16.06625 | 3.08753 | 35828 ft | 460 kts | 206° |
| 2026-04-22 19:27 | 16.00536 | 3.06649 | 35824 ft | 459 kts | 206° |
| 2026-04-22 19:28 | 15.94505 | 3.04567 | 35817 ft | 458 kts | 206° |
| 2026-04-22 19:28 | 15.88458 | 3.02479 | 35826 ft | 457 kts | 206° |
| 2026-04-22 19:29 | 15.82420 | 3.00396 | 35826 ft | 456 kts | 206° |
| 2026-04-22 19:29 | 15.76404 | 2.98328 | 35830 ft | 455 kts | 206° |
| 2026-04-22 19:30 | 15.71416 | 2.96609 | 35824 ft | 454 kts | 206° |
| 2026-04-22 19:30 | 15.64406 | 2.94193 | 35839 ft | 454 kts | 206° |
| 2026-04-22 19:31 | 15.58445 | 2.92142 | 35827 ft | 454 kts | 205° |
| 2026-04-22 19:31 | 15.52454 | 2.90086 | 35824 ft | 454 kts | 205° |
| 2026-04-22 19:32 | 15.46460 | 2.88026 | 35816 ft | 453 kts | 205° |
| 2026-04-22 19:32 | 15.40452 | 2.85963 | 35358 ft | 459 kts | 205° |
| 2026-04-22 19:32 | 15.37438 | 2.84930 | 35014 ft | 453 kts | 205° |
| 2026-04-22 19:33 | 15.34445 | 2.83904 | 34548 ft | 452 kts | 206° |
| 2026-04-22 19:33 | 15.31475 | 2.82888 | 34116 ft | 449 kts | 206° |
| 2026-04-22 19:33 | 15.28505 | 2.81871 | 33646 ft | 448 kts | 206° |
| 2026-04-22 19:33 | 15.25549 | 2.80858 | 33163 ft | 446 kts | 205° |
| 2026-04-22 19:34 | 15.22613 | 2.79852 | 32742 ft | 443 kts | 205° |
| 2026-04-22 19:34 | 15.19700 | 2.78854 | 32307 ft | 441 kts | 205° |
| 2026-04-22 19:34 | 15.16795 | 2.77859 | 31863 ft | 439 kts | 205° |
| 2026-04-22 19:34 | 15.13931 | 2.76879 | 31426 ft | 438 kts | 205° |
| 2026-04-22 19:35 | 15.11039 | 2.75888 | 30944 ft | 438 kts | 205° |
| 2026-04-22 19:35 | 15.08146 | 2.74898 | 30554 ft | 437 kts | 205° |
| 2026-04-22 19:35 | 15.05252 | 2.73910 | 30121 ft | 437 kts | 205° |
| 2026-04-22 19:35 | 15.02368 | 2.72921 | 29656 ft | 437 kts | 205° |
| 2026-04-22 19:36 | 14.99478 | 2.71933 | 29193 ft | 435 kts | 205° |
| 2026-04-22 19:36 | 14.96618 | 2.70954 | 28757 ft | 431 kts | 204° |
| 2026-04-22 19:36 | 14.93778 | 2.69989 | 28323 ft | 429 kts | 204° |
| 2026-04-22 19:36 | 14.90951 | 2.69022 | 27890 ft | 426 kts | 204° |
| 2026-04-22 19:37 | 14.88143 | 2.68060 | 27460 ft | 424 kts | 204° |
| 2026-04-22 19:37 | 14.85356 | 2.67111 | 27026 ft | 420 kts | 203° |
| 2026-04-22 19:37 | 14.82583 | 2.66162 | 26615 ft | 417 kts | 203° |
| 2026-04-22 19:37 | 14.79829 | 2.65225 | 26193 ft | 415 kts | 203° |
| 2026-04-22 19:38 | 14.77098 | 2.64298 | 25769 ft | 411 kts | 203° |
| 2026-04-22 19:38 | 14.74391 | 2.63370 | 25357 ft | 408 kts | 203° |
| 2026-04-22 19:38 | 14.71703 | 2.62452 | 24936 ft | 406 kts | 202° |
| 2026-04-22 19:38 | 14.69024 | 2.61540 | 24519 ft | 404 kts | 202° |
| 2026-04-22 19:39 | 14.66370 | 2.60636 | 24098 ft | 401 kts | 202° |
| 2026-04-22 19:39 | 14.63757 | 2.59747 | 23695 ft | 398 kts | 202° |
| 2026-04-22 19:39 | 14.61137 | 2.58855 | 23243 ft | 395 kts | 202° |
| 2026-04-22 19:39 | 14.58540 | 2.57972 | 22783 ft | 392 kts | 202° |
| 2026-04-22 19:40 | 14.55969 | 2.57097 | 22346 ft | 387 kts | 202° |
| 2026-04-22 19:40 | 14.53421 | 2.56231 | 21925 ft | 383 kts | 202° |
| 2026-04-22 19:40 | 14.50899 | 2.55374 | 21515 ft | 380 kts | 202° |
| 2026-04-22 19:40 | 14.48403 | 2.54524 | 21095 ft | 376 kts | 202° |
| 2026-04-22 19:41 | 14.45927 | 2.53682 | 20690 ft | 373 kts | 201° |
| 2026-04-22 19:41 | 14.43470 | 2.52847 | 20285 ft | 370 kts | 201° |
| 2026-04-22 19:41 | 14.41024 | 2.52015 | 19870 ft | 368 kts | 201° |
| 2026-04-22 19:41 | 14.38605 | 2.51192 | 19464 ft | 366 kts | 201° |
| 2026-04-22 19:42 | 14.36186 | 2.50370 | 19066 ft | 364 kts | 201° |
| 2026-04-22 19:42 | 14.33776 | 2.49551 | 18662 ft | 362 kts | 201° |
| 2026-04-22 19:42 | 14.31381 | 2.48738 | 18263 ft | 361 kts | 201° |
| 2026-04-22 19:42 | 14.29034 | 2.47940 | 17839 ft | 359 kts | 201° |
| 2026-04-22 19:43 | 14.24324 | 2.46341 | 17031 ft | 354 kts | 200° |
| 2026-04-22 19:43 | 14.21996 | 2.45551 | 16644 ft | 351 kts | 200° |
| 2026-04-22 19:43 | 14.19690 | 2.44769 | 16266 ft | 348 kts | 199° |
| 2026-04-22 19:44 | 14.17399 | 2.43992 | 15899 ft | 345 kts | 199° |
| 2026-04-22 19:44 | 14.15130 | 2.43222 | 15525 ft | 343 kts | 198° |
| 2026-04-22 19:44 | 14.12867 | 2.42454 | 15154 ft | 341 kts | 198° |
| 2026-04-22 19:44 | 14.10623 | 2.41694 | 14770 ft | 339 kts | 198° |
| 2026-04-22 19:45 | 14.08381 | 2.40933 | 14402 ft | 338 kts | 197° |
| 2026-04-22 19:45 | 14.06147 | 2.40177 | 14027 ft | 337 kts | 197° |
| 2026-04-22 19:45 | 14.03926 | 2.39425 | 13650 ft | 336 kts | 197° |
| 2026-04-22 19:45 | 14.01708 | 2.38674 | 13259 ft | 334 kts | 197° |
| 2026-04-22 19:46 | 13.99507 | 2.37930 | 12880 ft | 332 kts | 197° |
| 2026-04-22 19:46 | 13.97318 | 2.37188 | 12517 ft | 330 kts | 197° |
| 2026-04-22 19:46 | 13.95137 | 2.36449 | 12157 ft | 328 kts | 197° |
| 2026-04-22 19:46 | 13.93002 | 2.35727 | 11814 ft | 327 kts | 197° |
| 2026-04-22 19:47 | 13.90843 | 2.34995 | 11469 ft | 325 kts | 197° |
| 2026-04-22 19:47 | 13.88700 | 2.34271 | 11126 ft | 323 kts | 197° |
| 2026-04-22 19:47 | 13.87277 | 2.33722 | 10885 ft | 323 kts | 206° |
| 2026-04-22 19:47 | 13.85030 | 2.31751 | 10495 ft | 321 kts | 227° |
| 2026-04-22 19:48 | 13.83548 | 2.30033 | 10169 ft | 320 kts | 228° |
| 2026-04-22 19:48 | 13.82082 | 2.28300 | 9869 ft | 319 kts | 228° |
| 2026-04-22 19:48 | 13.80650 | 2.26607 | 9741 ft | 311 kts | 228° |
| 2026-04-22 19:48 | 13.79226 | 2.24934 | 9262 ft | 316 kts | 228° |
| 2026-04-22 19:49 | 13.77774 | 2.23234 | 8926 ft | 315 kts | 228° |
| 2026-04-22 19:49 | 13.76326 | 2.21546 | 8610 ft | 314 kts | 228° |
| 2026-04-22 19:49 | 13.74885 | 2.19871 | 8307 ft | 312 kts | 227° |
| 2026-04-22 19:49 | 13.73443 | 2.18199 | 8005 ft | 311 kts | 227° |
| 2026-04-22 19:50 | 13.72007 | 2.16534 | 7708 ft | 310 kts | 227° |
| 2026-04-22 19:50 | 13.70577 | 2.14878 | 7408 ft | 309 kts | 227° |
| 2026-04-22 19:50 | 13.69148 | 2.13224 | 7095 ft | 307 kts | 227° |
| 2026-04-22 19:50 | 13.67751 | 2.11607 | 6814 ft | 306 kts | 227° |
| 2026-04-22 19:51 | 13.66338 | 2.09972 | 6522 ft | 305 kts | 227° |
| 2026-04-22 19:51 | 13.64933 | 2.08348 | 6210 ft | 305 kts | 227° |
| 2026-04-22 19:51 | 13.63525 | 2.06717 | 5914 ft | 303 kts | 227° |
| 2026-04-22 19:51 | 13.62126 | 2.05099 | 5605 ft | 303 kts | 227° |
| 2026-04-22 19:52 | 13.60740 | 2.03479 | 5309 ft | 301 kts | 231° |
| 2026-04-22 19:52 | 13.59872 | 2.01541 | 4990 ft | 300 kts | 263° |
| 2026-04-22 19:52 | 13.59832 | 1.99426 | 4790 ft | 293 kts | 273° |
| 2026-04-22 19:52 | 13.59927 | 1.97372 | 4774 ft | 283 kts | 275° |
| 2026-04-22 19:53 | 13.60048 | 1.95361 | 4778 ft | 281 kts | 275° |
| 2026-04-22 19:53 | 13.60172 | 1.93374 | 4771 ft | 283 kts | 275° |
| 2026-04-22 19:53 | 13.60301 | 1.91349 | 4782 ft | 283 kts | 275° |
| 2026-04-22 19:53 | 13.60433 | 1.89342 | 4769 ft | 279 kts | 275° |
| 2026-04-22 19:54 | 13.60535 | 1.87370 | 4754 ft | 271 kts | 272° |
| 2026-04-22 19:54 | 13.60208 | 1.85520 | 4695 ft | 260 kts | 239° |
| 2026-04-22 19:54 | 13.58993 | 1.84276 | 4680 ft | 241 kts | 200° |
| 2026-04-22 19:54 | 13.57446 | 1.84074 | 4666 ft | 214 kts | 161° |
| 2026-04-22 19:55 | 13.56166 | 1.84751 | 4705 ft | 204 kts | 131° |
| 2026-04-22 19:55 | 13.55254 | 1.85853 | 4713 ft | 202 kts | 125° |
| 2026-04-22 19:55 | 13.54376 | 1.86985 | 4716 ft | 202 kts | 125° |
| 2026-04-22 19:55 | 13.53499 | 1.88120 | 4714 ft | 204 kts | 124° |
| 2026-04-22 19:56 | 13.52619 | 1.89266 | 4716 ft | 202 kts | 124° |
| 2026-04-22 19:56 | 13.51765 | 1.90404 | 4624 ft | 202 kts | 120° |
| 2026-04-22 19:56 | 13.51029 | 1.91611 | 4486 ft | 201 kts | 117° |
| 2026-04-22 19:56 | 13.50304 | 1.92835 | 4370 ft | 200 kts | 117° |
| 2026-04-22 19:57 | 13.49585 | 1.94049 | 4275 ft | 197 kts | 117° |
| 2026-04-22 19:57 | 13.48890 | 1.95218 | 4170 ft | 186 kts | 117° |
| 2026-04-22 19:57 | 13.48216 | 1.96321 | 4117 ft | 180 kts | 117° |
| 2026-04-22 19:57 | 13.47540 | 1.97412 | 3975 ft | 182 kts | 117° |
| 2026-04-22 19:58 | 13.47116 | 1.98574 | 3857 ft | 168 kts | 79° |
| 2026-04-22 19:58 | 13.47367 | 1.99731 | 3764 ft | 177 kts | 82° |
| 2026-04-22 19:58 | 13.47403 | 2.01004 | 3563 ft | 179 kts | 84° |
| 2026-04-22 19:58 | 13.47477 | 2.02248 | 3358 ft | 175 kts | 84° |
| 2026-04-22 19:59 | 13.47547 | 2.03495 | 3134 ft | 168 kts | 84° |
| 2026-04-22 20:00 | 13.47872 | 2.10610 | 1912 ft | 164 kts | 83° |
| 2026-04-22 20:00 | 13.47923 | 2.11752 | 1712 ft | 153 kts | 83° |
| 2026-04-22 20:01 | 13.47973 | 2.12824 | 1538 ft | 152 kts | 83° |
| 2026-04-22 20:01 | 13.48026 | 2.13949 | 1346 ft | 161 kts | 85° |
| 2026-04-22 20:01 | 13.48092 | 2.15084 | 1042 ft | 162 kts | 85° |
| 2026-04-22 20:01 | 13.48118 | 2.16226 | 839 ft | 154 kts | 83° |
| 2026-04-22 20:02 | 13.48185 | 2.17302 | 732 ft | 145 kts | 86° |
| 2026-04-22 20:02 | 13.48219 | 2.18143 | 729 ft | 88 kts | 89° |
| 2026-04-22 20:02 | 13.48240 | 2.18588 | 726 ft | 52 kts | 86° |
| 2026-04-22 20:02 | 13.48255 | 2.18947 | 721 ft | 49 kts | 87° |
| 2026-04-22 20:03 | 13.48273 | 2.19283 | 718 ft | 46 kts | 87° |
| 2026-04-22 20:03 | 13.48283 | 2.19568 | 716 ft | 16 kts | 88° |
| 2026-04-22 20:03 | 13.48261 | 2.19675 | 718 ft | 16 kts | 130° |
| 2026-04-22 20:03 | 13.48156 | 2.19708 | 717 ft | 17 kts | 179° |
| 2026-04-22 20:04 | 13.48095 | 2.19626 | 719 ft | 17 kts | 267° |
| 2026-04-22 20:04 | 13.48089 | 2.19498 | 721 ft | 19 kts | 267° |
| 2026-04-22 20:04 | 13.48083 | 2.19344 | 720 ft | 24 kts | 268° |
| 2026-04-22 20:04 | 13.48073 | 2.19159 | 721 ft | 28 kts | 267° |
| 2026-04-22 20:05 | 13.48064 | 2.18949 | 723 ft | 31 kts | 267° |
| 2026-04-22 20:05 | 13.48053 | 2.18723 | 724 ft | 29 kts | 267° |
| 2026-04-22 20:05 | 13.48046 | 2.18577 | 728 ft | 12 kts | 266° |
| 2026-04-22 20:05 | 13.47999 | 2.18526 | 726 ft | 11 kts | 186° |
| 2026-04-22 20:06 | 13.47928 | 2.18510 | 727 ft | 11 kts | 224° |
| 2026-04-22 20:06 | 13.47909 | 2.18419 | 727 ft | 17 kts | 267° |
| 2026-04-22 20:06 | 13.47903 | 2.18298 | 727 ft | 17 kts | 267° |
| 2026-04-22 20:06 | 13.47898 | 2.18180 | 728 ft | 16 kts | 268° |
| 2026-04-22 20:07 | 13.47893 | 2.18067 | 729 ft | 16 kts | 267° |
| 2026-04-22 20:07 | 13.47887 | 2.17962 | 729 ft | 14 kts | 269° |
| 2026-04-22 20:07 | 13.47889 | 2.17919 | 730 ft | 0 kts | 272° |
| 2026-04-22 20:08 | 13.47889 | 2.17900 | 730 ft | 5 kts | 269° |
| 2026-04-22 20:08 | 13.47885 | 2.17860 | 729 ft | 6 kts | 261° |
| 2026-04-22 20:08 | 13.47881 | 2.17819 | 730 ft | 6 kts | 257° |
| 2026-04-22 20:08 | 13.47872 | 2.17815 | 730 ft | 2 kts | 188° |
| 2026-04-22 20:09 | 13.47857 | 2.17816 | 730 ft | 2 kts | 174° |
| 2026-04-22 20:09 | 13.47843 | 2.17817 | 730 ft | 2 kts | 176° |
| 2026-04-22 20:09 | 13.47830 | 2.17818 | 730 ft | 2 kts | 176° |
| 2026-04-22 20:09 | 13.47821 | 2.17818 | 730 ft | 0 kts | 176° |